Flight Track Log - Related Links

Times and Time Zones

All times are in EDT time to prevent confusion due to time zone crossing. See the SKW5193 flight status page for this flight to view local times or setup timezone preferences in your user account.


Time Position Orientation Groundspeed Altitude Reporting Facility
EDT Latitude Longitude Course Direction KTS MPH feet Rate Location/Type
Tue 03:11:15 PM 33.8246 -116.4693 296° West  Level FlightAware Approximate
Tue 03:11:51 PM 33.8500 -116.5333 331° Northwest 176 203 1,400  Level Southern California TRACON
Tue 03:12:51 PM 33.9000 -116.5667 40° Northeast 210 242 3,600 2,231 Climbing Southern California TRACON
Tue 03:13:52 PM 33.9333 -116.5333 121° Southeast 241 277 5,900 2,231 Climbing Southern California TRACON
Tue 03:14:52 PM 33.9000 -116.4667 128° Southeast 251 289 8,100 1,721 Climbing Southern California TRACON
Tue 03:15:54 PM 33.8578 -116.4014 118° Southeast 295 339 9,400 1,672 Climbing Los Angeles Center
Tue 03:16:54 PM 33.8183 -116.3111 111° Southeast 307 353 11,500 2,200 Climbing Los Angeles Center
Tue 03:17:54 PM 33.7850 -116.2086 98° East 307 353 13,800 2,250 Climbing Los Angeles Center
Tue 03:18:54 PM 33.7725 -116.0986 97° East 317 365 16,000 2,150 Climbing Los Angeles Center
Tue 03:19:54 PM 33.7600 -115.9839 99° East 330 380 18,100 2,150 Climbing Los Angeles Center
Tue 03:20:54 PM 33.7453 -115.8689 99° East 342 394 20,300 1,950 Climbing Los Angeles Center
Tue 03:21:54 PM 33.7303 -115.7492 94° East 357 411 22,000 1,600 Climbing Los Angeles Center
Tue 03:22:54 PM 33.7236 -115.6217 83° East 363 418 23,500 1,600 Climbing Los Angeles Center
Tue 03:23:54 PM 33.7375 -115.4917 83° East 374 430 25,200 1,250 Climbing Los Angeles Center
Tue 03:24:54 PM 33.7514 -115.3592 84° East 389 448 26,000 400 Climbing Los Angeles Center
Tue 03:25:54 PM 33.7650 -115.2142 90° East 416 479 26,000 400 Level Los Angeles Center
Tue 03:26:54 PM 33.7658 -115.0642 90° East 436 502 26,800 900 Climbing Los Angeles Center
Tue 03:27:54 PM 33.7667 -114.9167 92° East 441 507 27,800 1,000 Climbing Los Angeles Center
Tue 03:28:54 PM 33.7631 -114.7669 105° East 441 507 28,800 850 Climbing Los Angeles Center
Tue 03:29:54 PM 33.7300 -114.6150 114° Southeast 446 513 29,500 750 Climbing Los Angeles Center
Tue 03:30:54 PM 33.6781 -114.4739 122° Southeast 454 522 30,300 629 Climbing Los Angeles Center
Tue 03:32:17 PM 33.5831 -114.2900 106° East 460 529 31,000 294 Climbing Albuquerque Center
Tue 03:33:17 PM 33.5444 -114.1272 101° East 475 547 31,000  Level Albuquerque Center
Tue 03:34:17 PM 33.5164 -113.9558 101° East 501 577 31,000 -50 Level Albuquerque Center
Tue 03:35:17 PM 33.4883 -113.7817 101° East 519 597 30,900  Descending Albuquerque Center
Tue 03:36:17 PM 33.4597 -113.6128 102° East 524 603 31,000 300 Climbing Albuquerque Center
Tue 03:37:17 PM 33.4308 -113.4464 101° East 518 596 31,500 600 Climbing Albuquerque Center
Tue 03:38:17 PM 33.4036 -113.2803 102° East 506 582 32,200 700 Climbing Albuquerque Center
Tue 03:39:17 PM 33.3761 -113.1194 102° East 501 577 32,900 700 Climbing Albuquerque Center
Tue 03:40:17 PM 33.3464 -112.9558 102° East 501 577 33,600 800 Climbing Albuquerque Center
Tue 03:41:17 PM 33.3164 -112.7897 102° East 496 571 34,500 900 Climbing Albuquerque Center
Tue 03:42:17 PM 33.2861 -112.6239 102° East 501 577 35,400 900 Climbing Albuquerque Center
Tue 03:43:17 PM 33.2558 -112.4581 103° East 506 582 36,300 900 Climbing Albuquerque Center
Tue 03:44:17 PM 33.2214 -112.2825 102° East 499 574 37,200 800 Climbing Albuquerque Center
Tue 03:45:17 PM 33.1942 -112.1344 103° East 499 574 37,900 750 Climbing Albuquerque Center
Tue 03:46:17 PM 33.1592 -111.9589 101° East 494 568 38,700 550 Climbing Albuquerque Center
Tue 03:47:17 PM 33.1353 -111.8189 102° East 489 563 39,000 -150 Climbing Albuquerque Center
Tue 03:48:17 PM 33.1022 -111.6411 103° East 484 557 38,400 -800 Descending Albuquerque Center
Tue 03:49:17 PM 33.0742 -111.4911 102° East 509 586 37,400 -700 Descending Albuquerque Center
Tue 03:50:17 PM 33.0389 -111.2986 103° East 529 609 37,000 -200 Descending Albuquerque Center
Tue 03:51:17 PM 33.0083 -111.1414 104° East 537 618 37,000  Level Albuquerque Center
Tue 03:52:17 PM 32.9739 -110.9764 103° East 530 610 37,000  Level Albuquerque Center
Tue 03:53:17 PM 32.9431 -110.8192 102° East 508 585 37,000  Level Albuquerque Center
Tue 03:54:17 PM 32.9142 -110.6622 105° East 488 562 37,000  Level Albuquerque Center
Tue 03:55:17 PM 32.8806 -110.5128 102° East 481 554 37,000  Level Albuquerque Center
Tue 03:56:17 PM 32.8514 -110.3536 104° East 481 554 37,000  Level Albuquerque Center
Tue 03:57:17 PM 32.8156 -110.1892 103° East 486 559 37,000  Level Albuquerque Center
Tue 03:58:17 PM 32.7839 -110.0253 104° East 501 577 37,000  Level Albuquerque Center
Tue 03:59:17 PM 32.7500 -109.8661 104° East 501 577 37,000  Level Albuquerque Center
Tue 04:00:17 PM 32.7119 -109.6850 104° East 506 582 37,000  Level Albuquerque Center
Tue 04:01:17 PM 32.6772 -109.5214 103° East 506 582 37,000  Level Albuquerque Center
Tue 04:02:17 PM 32.6447 -109.3603 105° East 506 582 37,000  Level Albuquerque Center
Tue 04:03:17 PM 32.6075 -109.1992 103° East 506 582 37,000 -50 Level Albuquerque Center
Tue 04:04:17 PM 32.5767 -109.0383 105° East 506 582 36,900 -500 Descending Albuquerque Center
Tue 04:05:17 PM 32.5411 -108.8828 104° East 495 570 36,000 -900 Descending Albuquerque Center
Tue 04:06:17 PM 32.5075 -108.7247 104° East 495 570 35,100 -500 Descending Albuquerque Center
Tue 04:07:17 PM 32.4778 -108.5839 104° East 495 570 35,000 -50 Descending Albuquerque Center
Tue 04:08:17 PM 32.4439 -108.4261 106° East 490 564 35,000 -50 Level Albuquerque Center
Tue 04:09:17 PM 32.4036 -108.2583 105° East 490 564 34,900  Descending Albuquerque Center
Tue 04:10:17 PM 32.3669 -108.1008 103° East 490 564 35,000 50 Climbing Albuquerque Center
Tue 04:11:17 PM 32.3347 -107.9408 105° East 495 570 35,000  Level Albuquerque Center
Tue 04:12:17 PM 32.2997 -107.7858 105° East 495 570 35,000  Level Albuquerque Center
Tue 04:13:17 PM 32.2628 -107.6286 104° East 495 570 35,000  Level Albuquerque Center
Tue 04:14:17 PM 32.2297 -107.4692 105° East 495 570 35,000  Level Albuquerque Center
Tue 04:15:17 PM 32.1983 -107.3267 105° East 495 570 35,000  Level Albuquerque Center
Tue 04:16:17 PM 32.1628 -107.1722 105° East 495 570 35,000  Level Albuquerque Center
Tue 04:17:17 PM 32.1269 -107.0156 106° East 495 570 35,000  Level Albuquerque Center
Tue 04:18:17 PM 32.0911 -106.8639 106° East 490 564 35,000  Level Albuquerque Center
Tue 04:19:17 PM 32.0547 -106.7122 105° East 490 564 35,000  Level Albuquerque Center
Tue 04:20:17 PM 32.0206 -106.5608 105° East 479 551 35,000  Level Albuquerque Center
Tue 04:21:17 PM 31.9861 -106.4119 105° East 474 545 35,000  Level Albuquerque Center
Tue 04:22:17 PM 31.9514 -106.2581 99° East 474 545 35,000  Level Albuquerque Center
Tue 04:23:17 PM 31.9311 -106.1069 100° East 469 540 35,000  Level Albuquerque Center
Tue 04:24:17 PM 31.9064 -105.9386 100° East 469 540 35,000  Level Albuquerque Center
Tue 04:25:17 PM 31.8858 -105.8044 100° East 469 540 35,000  Level Albuquerque Center
Tue 04:26:17 PM 31.8608 -105.6389 99° East 469 540 35,000  Level Albuquerque Center
Tue 04:27:17 PM 31.8419 -105.5050 99° East 469 540 35,000  Level Albuquerque Center
Tue 04:28:17 PM 31.8183 -105.3344 101° East 463 533 35,000  Level Albuquerque Center
Tue 04:29:17 PM 31.7975 -105.2056 99° East 463 533 35,000  Level Albuquerque Center
Tue 04:30:17 PM 31.7758 -105.0522 99° East 468 539 35,000  Level Albuquerque Center
Tue 04:31:17 PM 31.7561 -104.9042 100° East 468 539 35,000  Level Albuquerque Center
Tue 04:32:17 PM 31.7342 -104.7533 102° East 468 539 35,000  Level Albuquerque Center
Tue 04:33:17 PM 31.7081 -104.6056 99° East 468 539 35,000  Level Albuquerque Center
Tue 04:34:17 PM 31.6878 -104.4550 99° East 463 533 35,000 200 Level Albuquerque Center
Tue 04:35:17 PM 31.6675 -104.3069 101° East 463 533 35,400 550 Climbing Albuquerque Center
Tue 04:36:17 PM 31.6428 -104.1542 99° East 463 533 36,100 700 Climbing Albuquerque Center
Tue 04:37:17 PM 31.6217 -104.0017 100° East 463 533 36,800 700 Climbing Albuquerque Center
Tue 04:38:17 PM 31.5986 -103.8514 101° East 463 533 37,500 700 Climbing Albuquerque Center
Tue 04:39:17 PM 31.5736 -103.7039 99° East 463 533 38,200 700 Climbing Albuquerque Center
Tue 04:40:17 PM 31.5522 -103.5514 101° East 463 533 38,900 400 Climbing Albuquerque Center
Tue 04:41:17 PM 31.5286 -103.4064 99° East 463 533 39,000 50 Climbing Albuquerque Center
Tue 04:42:17 PM 31.5067 -103.2517 101° East 468 539 39,000  Level Albuquerque Center
Tue 04:43:17 PM 31.4808 -103.1022 100° East 468 539 39,000  Level Albuquerque Center
Tue 04:44:17 PM 31.4564 -102.9453 101° East 473 544 39,000  Level Albuquerque Center
Tue 04:45:17 PM 31.4317 -102.7911 100° East 479 551 39,000  Level Albuquerque Center
Tue 04:47:36 PM 31.3736 -102.4233 103° East 488 562 39,000  Level Houston Center
Tue 04:48:36 PM 31.3428 -102.2625 99° East 488 562 39,000  Level Houston Center
Tue 04:49:36 PM 31.3233 -102.1125 103° East 500 575 39,000  Level Houston Center
Tue 04:50:36 PM 31.2933 -101.9614 101° East 506 582 39,000  Level Houston Center
Tue 04:51:36 PM 31.2675 -101.8083 101° East 484 557 39,000  Level Houston Center
Tue 04:52:36 PM 31.2414 -101.6581 102° East 478 550 39,000  Level Houston Center
Tue 04:53:36 PM 31.2131 -101.5050 100° East 478 550 39,000  Level Houston Center
Tue 04:54:36 PM 31.1906 -101.3575 101° East 478 550 39,000  Level Houston Center
Tue 04:55:36 PM 31.1644 -101.1997 99° East 470 541 39,000  Level Houston Center
Tue 04:56:36 PM 31.1439 -101.0478 98° East 470 541 39,000  Level Houston Center
Tue 04:57:36 PM 31.1250 -100.8958 100° East 470 541 39,000  Level Houston Center
Tue 04:58:36 PM 31.1019 -100.7483 99° East 470 541 39,000  Level Houston Center
Tue 04:59:36 PM 31.0806 -100.5989 99° East 470 541 39,000  Level Houston Center
Tue 05:00:36 PM 31.0592 -100.4494 101° East 470 541 39,000  Level Houston Center
Tue 05:01:36 PM 31.0350 -100.3069 100° East 470 541 39,000  Level Houston Center
Tue 05:02:36 PM 31.0133 -100.1575 100° East 465 535 39,000  Level Houston Center
Tue 05:03:36 PM 30.9914 -100.0106 97° East 465 535 39,000  Level Houston Center
Tue 05:04:36 PM 30.9756 -99.8592 91° East 465 535 39,000  Level Houston Center
Tue 05:05:36 PM 30.9739 -99.7164 92° East 465 535 39,000  Level Houston Center
Tue 05:06:36 PM 30.9703 -99.5639 91° East 465 535 39,000  Level Houston Center
Tue 05:07:36 PM 30.9683 -99.4211 92° East 460 529 39,000  Level Houston Center
Tue 05:08:36 PM 30.9639 -99.2756 97° East 455 524 39,000  Level Houston Center
Tue 05:09:36 PM 30.9506 -99.1417 91° East 455 524 39,000  Level Houston Center
Tue 05:10:36 PM 30.9481 -98.9986 91° East 455 524 39,000  Level Houston Center
Tue 05:11:36 PM 30.9456 -98.8511 92° East 455 524 39,000  Level Houston Center
Tue 05:12:36 PM 30.9408 -98.7056 93° East 455 524 39,000  Level Houston Center
Tue 05:13:36 PM 30.9344 -98.5456 92° East 455 524 39,000  Level Houston Center
Tue 05:14:36 PM 30.9294 -98.4000 93° East 455 524 39,000  Level Houston Center
Tue 05:15:36 PM 30.9239 -98.2547 93° East 450 518 39,000  Level Houston Center
Tue 05:16:36 PM 30.9183 -98.1117 92° East 450 518 39,000  Level Houston Center
Tue 05:17:36 PM 30.9131 -97.9636 93° East 445 512 39,000  Level Houston Center
Tue 05:18:36 PM 30.9069 -97.8206 94° East 445 512 39,000 -100 Level Houston Center
Tue 05:19:36 PM 30.8989 -97.6750 93° East 445 512 38,800 -350 Descending Houston Center
Tue 05:20:36 PM 30.8928 -97.5297 92° East 445 512 38,300 -500 Descending Houston Center
Tue 05:21:36 PM 30.8881 -97.3964 92° East 451 519 37,800 -900 Descending Houston Center
Tue 05:22:36 PM 30.8828 -97.2269 94° East 465 535 36,500 -1,400 Descending Houston Center
Tue 05:23:36 PM 30.8725 -97.0692 92° East 488 562 35,000 -1,600 Descending Houston Center
Tue 05:24:36 PM 30.8678 -96.9261 99° East 468 539 33,300 -1,950 Descending Houston Center
Tue 05:25:36 PM 30.8464 -96.7728 116° Southeast 468 539 31,100 -2,600 Descending Houston Center
Tue 05:26:36 PM 30.7872 -96.6297 117° Southeast 474 545 28,100 -2,950 Descending Houston Center
Tue 05:27:36 PM 30.7294 -96.4967 116° Southeast 464 534 25,200 -2,900 Descending Houston Center
Tue 05:28:36 PM 30.6736 -96.3658 117° Southeast 458 527 22,300 -2,650 Descending Houston Center
Tue 05:29:36 PM 30.6233 -96.2525 118° Southeast 453 521 19,900 -2,807 Descending Houston Center
Tue 05:30:25 PM 30.5708 -96.1369 118° Southeast 428 493 17,200 -3,027 Descending Houston Center
Tue 05:31:27 PM 30.5142 -96.0139 116° Southeast 414 476 14,300 -2,488 Descending Houston Center
Tue 05:32:28 PM 30.4658 -95.8986 132° Southeast 404 465 12,100 -1,317 Descending Houston Center
Tue 05:33:30 PM 30.3917 -95.8017 137° Southeast 404 465 11,600 -634 Descending Houston Center
Tue 05:34:31 PM 30.3047 -95.7092 138° Southeast 405 466 10,800 -769 Descending Houston Center
Tue 05:35:27 PM 30.2297 -95.6317 139° Southeast 398 458 10,100 -974 Descending Houston Center
Tue 05:36:28 PM 30.1589 -95.5594 131° Southeast 303 349 8,900 -1,279 Descending Houston Center
Tue 05:37:29 PM 30.1025 -95.4853 88° East 287 330 7,500 -934 Descending Houston Center
Tue 05:38:30 PM 30.1050 -95.3964 90° East 275 316 7,000 -236 Descending Houston Center
Tue 05:39:36 PM 30.1053 -95.3031 102° East 272 313 7,000 -439 Level Houston Center
Tue 05:40:33 PM 30.0908 -95.2233 135° Southeast 234 269 6,100 -1,412 Descending Houston Center
Tue 05:41:35 PM 30.0442 -95.1689 206° Southwest 240 276 4,200 -1,902 Descending Houston Center
Tue 05:42:36 PM 29.9956 -95.1958 206° Southwest 196 226 2,200 -1,967 Descending Houston Center

Login

Don't have an account? Register now (free) for customized features, flight alerts, and more!